Time;durP1;ratioP1;P1;durP2;ratioP2;P2;SDS_P1;SDS_P2;PMS_P1;PMS_P2;Temp;Humidity;BMP_temperature;BMP_pressure;BME280_temperature;BME280_humidity;BME280_pressure;Samples;Min_cycle;Max_cycle;Signal;HPM_P1;HPM_P2
2022/08/28 00:00:37;;;;;;;16.58;9.27;;;;;;;22.55;70.06;99729.03;5046909;28;20075;-32
2022/08/28 00:03:03;;;;;;;15.15;9.30;;;;;;;21.96;72.04;99701.75;5046893;28;20025;-28
2022/08/28 00:05:30;;;;;;;19.52;9.70;;;;;;;21.99;73.27;99723.66;5046569;28;20035;-32
2022/08/28 00:07:57;;;;;;;21.42;9.82;;;;;;;22.11;72.01;99723.16;5046494;28;20111;-32
2022/08/28 00:10:25;;;;;;;20.15;10.00;;;;;;;21.98;72.49;99707.69;5028984;28;20088;-29
2022/08/28 00:12:53;;;;;;;21.92;10.57;;;;;;;21.95;73.14;99719.16;5028853;28;20504;-31
2022/08/28 00:15:23;;;;;;;20.83;10.40;;;;;;;22.02;71.72;99717.63;5028725;28;20037;-33
2022/08/28 00:17:49;;;;;;;19.90;10.20;;;;;;;21.81;72.61;99721.88;5028617;28;20029;-29
2022/08/28 00:20:17;;;;;;;20.90;10.23;;;;;;;21.98;71.72;99722.06;5027972;28;20032;-33
2022/08/28 00:22:43;;;;;;;23.55;10.40;;;;;;;22.02;71.81;99709.47;5046821;28;20025;-31
2022/08/28 00:25:11;;;;;;;24.10;10.25;;;;;;;22.12;71.75;99724.75;5028799;28;20807;-28
2022/08/28 00:27:51;;;;;;;22.75;10.57;;;;;;;22.08;71.48;99715.59;5028803;28;20118;-29
2022/08/28 00:30:19;;;;;;;22.45;9.82;;;;;;;21.78;71.72;99689.91;5046433;28;20037;-31
2022/08/28 00:32:44;;;;;;;16.48;9.80;;;;;;;21.86;72.07;99698.16;5028739;28;20102;-33
2022/08/28 00:35:11;;;;;;;20.15;10.95;;;;;;;21.84;72.52;99713.13;5046596;28;20393;-29
2022/08/28 00:37:38;;;;;;;18.77;9.50;;;;;;;21.90;72.21;99724.69;5046636;28;20068;-29
2022/08/28 00:40:07;;;;;;;20.25;10.02;;;;;;;21.72;73.27;99720.97;5028415;28;20056;-28
2022/08/28 00:42:34;;;;;;;18.52;9.60;;;;;;;21.51;74.77;99707.78;5046533;28;20059;-33
2022/08/28 00:44:59;;;;;;;18.20;9.87;;;;;;;21.97;72.16;99704.16;5048923;28;20110;-29
2022/08/28 00:47:27;;;;;;;20.23;10.32;;;;;;;21.61;74.62;99709.50;5049526;28;20493;-30
2022/08/28 00:49:54;;;;;;;22.02;10.27;;;;;;;21.56;74.68;99688.72;5032213;28;20500;-28
2022/08/28 00:52:23;;;;;;;17.48;10.43;;;;;;;21.91;73.44;99707.31;5032051;28;20040;-31
2022/08/28 00:55:00;;;;;;;21.08;9.95;;;;;;;21.70;74.27;99706.88;5031986;28;20570;-30
2022/08/28 00:57:53;;;;;;;21.48;10.00;;;;;;;21.86;72.90;99709.00;5050071;28;20067;-29
2022/08/28 01:00:29;;;;;;;16.58;9.75;;;;;;;21.85;73.39;99712.03;5029805;28;20128;-30
2022/08/28 01:02:57;;;;;;;21.48;9.77;;;;;;;21.66;73.89;99718.34;5032152;28;20029;-33
2022/08/28 01:05:22;;;;;;;23.30;10.43;;;;;;;21.97;73.40;99715.03;5049902;28;20029;-30
2022/08/28 01:07:49;;;;;;;23.88;10.73;;;;;;;21.65;72.81;99691.50;5031740;28;20042;-32
2022/08/28 01:10:19;;;;;;;23.08;10.93;;;;;;;21.58;75.19;99729.13;5049581;28;20025;-29
2022/08/28 01:12:46;;;;;;;21.17;10.93;;;;;;;21.61;74.38;99723.88;5031699;28;20033;-29
2022/08/28 01:15:16;;;;;;;22.52;11.05;;;;;;;21.63;74.14;99743.38;5031771;28;20028;-29
2022/08/28 01:17:46;;;;;;;19.95;10.48;;;;;;;21.44;75.49;99712.81;5031670;28;20032;-29
2022/08/28 01:20:16;;;;;;;20.40;10.30;;;;;;;21.32;75.77;99721.41;5031218;28;20021;-32
2022/08/28 01:23:00;;;;;;;17.48;10.25;;;;;;;21.34;75.73;99729.25;5031395;28;20025;-31
2022/08/28 01:25:29;;;;;;;18.63;9.43;;;;;;;21.17;76.69;99741.47;5049786;28;20025;-29
2022/08/28 01:27:55;;;;;;;19.10;9.93;;;;;;;21.13;76.86;99729.59;5049473;28;20037;-37
2022/08/28 01:30:23;;;;;;;18.98;11.00;;;;;;;20.93;78.09;99736.16;5031509;28;20033;-29
2022/08/28 01:32:52;;;;;;;21.80;10.15;;;;;;;20.68;78.77;99753.63;5031321;28;20036;-30
2022/08/28 01:35:24;;;;;;;20.98;10.00;;;;;;;20.52;80.32;99753.00;5031283;28;20037;-32
2022/08/28 01:37:50;;;;;;;18.92;9.95;;;;;;;20.48;81.04;99747.38;5031347;28;20029;-28
2022/08/28 01:40:21;;;;;;;17.58;9.27;;;;;;;20.72;79.38;99746.53;5049191;28;20100;-31
2022/08/28 01:42:47;;;;;;;15.90;8.88;;;;;;;20.50;81.34;99754.41;5031281;28;20191;-30
2022/08/28 01:45:15;;;;;;;20.42;8.82;;;;;;;20.50;82.29;99751.69;5030943;28;20116;-30
2022/08/28 01:47:43;;;;;;;15.73;9.27;;;;;;;20.91;79.81;99751.13;5030652;28;20068;-28
2022/08/28 01:50:11;;;;;;;17.20;8.82;;;;;;;21.20;77.56;99757.13;5030674;28;20508;-29
2022/08/28 01:52:36;;;;;;;19.80;8.95;;;;;;;21.00;78.10;99749.34;5031127;28;20718;-33
2022/08/28 01:55:06;;;;;;;17.85;9.32;;;;;;;21.13;77.55;99737.75;5048984;28;20533;-28
2022/08/28 01:57:32;;;;;;;17.15;9.80;;;;;;;21.10;77.75;99741.03;5030936;28;20106;-31
2022/08/28 01:59:58;;;;;;;20.90;9.57;;;;;;;21.20;77.42;99730.00;5030283;28;20035;-28
2022/08/28 02:02:24;;;;;;;14.98;9.63;;;;;;;21.29;76.85;99754.56;5030639;28;20029;-29
2022/08/28 02:04:51;;;;;;;21.13;10.60;;;;;;;21.21;76.63;99742.47;5048519;28;20033;-32
2022/08/28 02:07:16;;;;;;;20.83;10.05;;;;;;;20.80;77.16;99732.31;5047604;28;20141;-30
2022/08/28 02:09:42;;;;;;;18.55;9.48;;;;;;;20.70;78.72;99737.88;5030487;28;20119;-30
2022/08/28 02:12:08;;;;;;;21.25;10.20;;;;;;;20.81;78.34;99750.16;5048898;28;20029;-29
2022/08/28 02:14:34;;;;;;;22.27;11.38;;;;;;;20.60;79.04;99740.75;5030421;28;20556;-30
2022/08/28 02:16:59;;;;;;;15.48;9.45;;;;;;;20.10;81.30;99743.00;5048402;28;20115;-35
2022/08/28 02:19:25;;;;;;;17.85;9.13;;;;;;;20.12;81.25;99749.75;5030215;28;20559;-29
2022/08/28 02:21:50;;;;;;;14.60;8.63;;;;;;;20.01;82.17;99749.06;5048379;28;20029;-28
2022/08/28 02:24:16;;;;;;;18.95;9.15;;;;;;;20.01;82.66;99748.28;5048325;28;20029;-28
2022/08/28 02:26:43;;;;;;;16.17;8.95;;;;;;;20.64;79.37;99760.75;5030154;28;20041;-31
2022/08/28 02:29:10;;;;;;;15.52;9.95;;;;;;;20.66;79.20;99763.97;5030421;28;20091;-30
2022/08/28 02:31:36;;;;;;;16.75;9.07;;;;;;;20.09;81.78;99750.34;5048032;28;20029;-29
2022/08/28 02:34:02;;;;;;;15.10;9.38;;;;;;;20.06;82.18;99757.13;5048306;28;20043;-28
2022/08/28 02:36:28;;;;;;;18.75;9.55;;;;;;;20.44;80.97;99756.38;5030435;28;20040;-31
2022/08/28 02:38:53;;;;;;;19.63;10.00;;;;;;;20.52;80.08;99758.44;5048401;28;20079;-29
2022/08/28 02:41:19;;;;;;;23.80;10.43;;;;;;;20.73;79.00;99767.09;5030235;28;20064;-31
2022/08/28 02:43:45;;;;;;;20.75;10.23;;;;;;;20.98;77.45;99760.47;5030023;28;20059;-29
2022/08/28 02:46:13;;;;;;;18.33;9.48;;;;;;;20.48;78.91;99755.50;5047647;28;20664;-33
2022/08/28 02:48:39;;;;;;;16.75;10.25;;;;;;;20.78;77.67;99750.78;5047608;28;20059;-29
2022/08/28 02:51:12;;;;;;;19.80;10.68;;;;;;;20.61;78.79;99772.94;5047874;28;20107;-32
2022/08/28 02:53:38;;;;;;;22.48;9.68;;;;;;;20.47;78.77;99756.59;5029916;28;20124;-29
2022/08/28 02:56:05;;;;;;;23.42;10.43;;;;;;;20.27;79.77;99771.22;5029731;28;20075;-32
2022/08/28 02:58:34;;;;;;;22.13;10.73;;;;;;;20.26;80.50;99774.22;5029713;28;20037;-28
2022/08/28 03:01:01;;;;;;;16.20;9.65;;;;;;;20.19;80.65;99766.44;5047506;28;20064;-32
2022/08/28 03:03:31;;;;;;;25.17;10.37;;;;;;;20.50;78.16;99776.06;5029850;28;20036;-28
2022/08/28 03:06:00;;;;;;;20.17;10.27;;;;;;;20.38;78.35;99780.00;5029132;28;20028;-30
2022/08/28 03:08:27;;;;;;;16.95;9.23;;;;;;;20.03;79.62;99773.16;5047611;28;20044;-30
2022/08/28 03:10:53;;;;;;;16.38;10.30;;;;;;;20.37;79.03;99786.53;5029556;28;20041;-33
2022/08/28 03:13:18;;;;;;;18.63;9.30;;;;;;;20.41;78.96;99768.59;5047347;28;20037;-30
2022/08/28 03:15:45;;;;;;;23.75;11.82;;;;;;;20.45;78.77;99790.47;5047589;28;20496;-28
2022/08/28 03:18:12;;;;;;;27.50;12.85;;;;;;;20.57;78.23;99790.84;5029403;28;20110;-30
2022/08/28 03:20:39;;;;;;;28.75;12.55;;;;;;;20.64;78.10;99788.63;5029445;28;20048;-29
2022/08/28 03:25:49;;;;;;;26.77;13.77;;;;;;;20.21;79.08;99769.66;5047503;28;20056;-32
2022/08/28 03:28:15;;;;;;;28.73;12.68;;;;;;;20.31;78.63;99779.56;5029315;28;20035;-30
2022/08/28 03:30:40;;;;;;;32.90;13.57;;;;;;;20.30;79.13;99794.19;5047571;28;20033;-30
2022/08/28 03:33:05;;;;;;;29.52;13.30;;;;;;;20.32;79.03;99775.75;5029425;28;20040;-33
2022/08/28 03:35:31;;;;;;;23.38;12.25;;;;;;;20.34;79.38;99789.81;5047339;28;20032;-29
2022/08/28 03:37:56;;;;;;;21.63;10.93;;;;;;;20.45;78.54;99788.59;5047061;28;20021;-28
2022/08/28 03:40:22;;;;;;;25.20;11.25;;;;;;;20.31;79.04;99784.16;5046908;28;20029;-29
2022/08/28 03:42:48;;;;;;;27.55;11.13;;;;;;;20.10;79.70;99768.16;5047303;28;20028;-34
2022/08/28 03:45:13;;;;;;;20.63;10.57;;;;;;;20.04;80.56;99767.44;5046791;28;20086;-31
2022/08/28 03:47:40;;;;;;;15.20;8.77;;;;;;;20.06;80.85;99784.22;5046729;28;20152;-32
2022/08/28 03:50:11;;;;;;;21.65;10.35;;;;;;;19.58;82.73;99778.72;5045219;28;20044;-30
2022/08/28 03:52:38;;;;;;;20.55;9.85;;;;;;;19.33;84.86;99787.91;5028869;28;20032;-29
2022/08/28 03:55:07;;;;;;;21.83;10.47;;;;;;;19.33;86.63;99790.59;5028880;28;20082;-28
2022/08/28 03:57:34;;;;;;;40.38;11.25;;;;;;;19.35;85.71;99793.00;5046979;28;20289;-30
2022/08/28 04:00:01;;;;;;;26.17;10.90;;;;;;;19.84;82.99;99802.88;5028793;28;20044;-33
2022/08/28 04:02:26;;;;;;;27.63;10.35;;;;;;;19.75;82.35;99788.34;5046942;28;20148;-29
2022/08/28 04:04:52;;;;;;;22.90;10.73;;;;;;;20.02;82.24;99810.25;5029022;28;20029;-29
2022/08/28 04:07:19;;;;;;;26.73;11.05;;;;;;;20.08;81.49;99802.84;5046883;28;20400;-32
2022/08/28 04:09:46;;;;;;;20.42;10.45;;;;;;;20.10;81.76;99810.69;5028912;28;20036;-33
2022/08/28 04:12:11;;;;;;;23.13;10.50;;;;;;;19.90;82.85;99806.31;5028740;28;20057;-29
2022/08/28 04:14:37;;;;;;;20.77;10.20;;;;;;;19.48;84.20;99795.06;5028906;28;20029;-30
2022/08/28 04:17:04;;;;;;;21.98;10.07;;;;;;;19.55;84.79;99803.63;5028875;28;20025;-30
2022/08/28 04:19:29;;;;;;;21.25;10.38;;;;;;;19.53;84.59;99807.72;5032132;28;20068;-28
2022/08/28 04:21:55;;;;;;;20.20;10.18;;;;;;;19.77;83.34;99805.09;5050532;28;20048;-30
2022/08/28 04:24:22;;;;;;;19.67;11.02;;;;;;;19.84;82.85;99792.03;5050619;28;20037;-32
2022/08/28 04:26:47;;;;;;;24.33;10.43;;;;;;;19.87;82.67;99802.28;5051066;28;20382;-29
2022/08/28 04:29:14;;;;;;;21.40;10.68;;;;;;;19.66;83.67;99796.25;5050598;28;20051;-31
2022/08/28 04:31:40;;;;;;;22.00;10.40;;;;;;;19.78;84.10;99810.22;5032632;28;20424;-33
2022/08/28 04:34:08;;;;;;;23.52;11.18;;;;;;;19.64;84.10;99793.81;5050361;28;20270;-31
2022/08/28 04:36:34;;;;;;;19.27;9.65;;;;;;;19.99;83.00;99810.81;5050404;28;20052;-27
2022/08/28 04:39:00;;;;;;;18.70;9.90;;;;;;;20.27;82.60;99811.84;5032436;28;20064;-31
2022/08/28 04:41:27;;;;;;;17.23;9.68;;;;;;;20.11;83.51;99796.88;5050487;28;20033;-29
2022/08/28 04:43:55;;;;;;;21.95;10.68;;;;;;;20.32;82.99;99802.03;5032257;28;20047;-31
2022/08/28 04:46:21;;;;;;;24.75;12.80;;;;;;;20.52;81.33;99811.81;5032092;28;20068;-29
2022/08/28 04:48:46;;;;;;;23.05;12.02;;;;;;;20.81;78.71;99812.50;5031968;28;20069;-28
2022/08/28 04:51:13;;;;;;;19.60;10.50;;;;;;;20.86;79.07;99828.69;5050199;28;20037;-35
2022/08/28 04:53:40;;;;;;;23.20;9.48;;;;;;;20.92;78.25;99825.91;5049897;28;20419;-28
2022/08/28 04:56:09;;;;;;;19.17;9.90;;;;;;;20.93;78.49;99822.09;5032051;28;20556;-34
2022/08/28 04:58:36;;;;;;;18.90;8.48;;;;;;;20.74;79.50;99822.91;5050228;28;20037;-28
2022/08/28 05:01:18;;;;;;;17.80;9.30;;;;;;;20.93;77.63;99824.81;5031802;28;20467;-30
2022/08/28 05:03:45;;;;;;;18.05;8.68;;;;;;;21.11;77.12;99818.56;5050031;28;20029;-29
2022/08/28 05:06:13;;;;;;;18.33;9.77;;;;;;;21.25;76.69;99830.28;5049827;28;20033;-32
2022/08/28 05:08:39;;;;;;;21.38;10.02;;;;;;;21.10;77.08;99821.56;5032137;28;20484;-29
2022/08/28 05:11:09;;;;;;;25.42;11.88;;;;;;;21.18;77.95;99819.00;5049976;28;20033;-28
2022/08/28 05:13:35;;;;;;;20.50;11.57;;;;;;;21.18;77.13;99823.63;5031773;28;20056;-31
2022/08/28 05:16:02;;;;;;;18.08;10.60;;;;;;;21.15;78.05;99808.75;5031807;28;20475;-32
2022/08/28 05:18:28;;;;;;;21.27;9.75;;;;;;;21.28;77.04;99813.41;5031704;28;20044;-32
2022/08/28 05:20:54;;;;;;;17.38;9.40;;;;;;;21.38;75.04;99826.00;5031719;28;20024;-29
2022/08/28 05:23:19;;;;;;;18.67;9.70;;;;;;;21.37;75.31;99820.84;5049568;28;20032;-31
2022/08/28 05:25:47;;;;;;;18.60;10.38;;;;;;;21.44;74.68;99808.56;5049667;28;20412;-29
2022/08/28 05:28:15;;;;;;;20.15;10.25;;;;;;;21.41;75.02;99808.31;5049360;28;20037;-30
2022/08/28 05:30:42;;;;;;;18.38;10.20;;;;;;;21.45;75.74;99822.91;5031107;28;20194;-33
2022/08/28 05:33:09;;;;;;;16.10;9.48;;;;;;;21.57;75.36;99827.88;5031507;28;20033;-33
2022/08/28 05:35:37;;;;;;;17.30;9.10;;;;;;;21.56;74.26;99808.09;5031455;28;20029;-31
2022/08/28 05:38:04;;;;;;;18.35;9.43;;;;;;;21.52;75.56;99817.13;5031394;28;20302;-30
2022/08/28 05:40:30;;;;;;;15.43;9.23;;;;;;;21.89;74.38;99842.53;5031064;28;20097;-29
2022/08/28 05:42:55;;;;;;;19.65;9.18;;;;;;;21.89;73.60;99816.19;5049168;28;20032;-29
2022/08/28 05:45:22;;;;;;;19.33;8.90;;;;;;;22.02;74.09;99834.38;5048744;28;20790;-29
2022/08/28 05:47:48;;;;;;;16.58;9.27;;;;;;;22.34;73.09;99849.00;5030869;28;20057;-36
2022/08/28 05:50:14;;;;;;;16.58;9.10;;;;;;;22.55;72.85;99851.31;5049213;28;20451;-30
2022/08/28 05:52:41;;;;;;;15.32;8.50;;;;;;;22.70;71.57;99840.13;5049323;28;20116;-29
2022/08/28 05:55:08;;;;;;;18.48;8.10;;;;;;;22.87;71.85;99848.41;5049019;28;20025;-29
2022/08/28 05:57:34;;;;;;;14.77;8.02;;;;;;;22.98;70.73;99845.47;5031018;28;20037;-29
2022/08/28 06:00:00;;;;;;;15.75;7.70;;;;;;;22.99;72.00;99844.38;5048222;28;20546;-30
2022/08/28 06:02:26;;;;;;;18.27;9.65;;;;;;;23.12;71.11;99856.34;5048026;28;20041;-30
2022/08/28 06:04:53;;;;;;;18.27;9.25;;;;;;;23.20;71.08;99856.41;5035132;28;20028;-29
2022/08/28 06:07:19;;;;;;;18.13;7.63;;;;;;;23.15;70.21;99856.53;5051158;28;20559;-29
2022/08/28 06:09:44;;;;;;;16.58;7.88;;;;;;;23.32;68.88;99853.13;5068561;28;20116;-29
2022/08/28 06:12:10;;;;;;;16.83;6.85;;;;;;;23.35;68.45;99830.72;5068389;28;20476;-28
2022/08/28 06:14:36;;;;;;;13.68;7.50;;;;;;;23.52;68.53;99865.44;5050281;28;20020;-34
2022/08/28 06:17:02;;;;;;;14.45;6.63;;;;;;;23.67;68.79;99853.34;5049708;28;20059;-30
2022/08/28 06:19:30;;;;;;;13.68;6.75;;;;;;;23.92;66.82;99862.78;5050100;28;20120;-32
2022/08/28 06:21:58;;;;;;;18.83;7.15;;;;;;;23.88;67.22;99829.13;5049941;28;20039;-39
2022/08/28 06:24:26;;;;;;;11.98;6.65;;;;;;;24.23;65.55;99856.50;5049932;28;20108;-33
2022/08/28 06:26:52;;;;;;;16.23;7.38;;;;;;;24.40;63.29;99862.03;5068450;28;20460;-31
2022/08/28 06:29:18;;;;;;;13.45;8.02;;;;;;;24.35;64.05;99837.63;5067679;28;20036;-31
2022/08/28 06:31:44;;;;;;;20.55;7.35;;;;;;;24.65;62.95;99857.00;5067903;28;20256;-30
2022/08/28 06:34:10;;;;;;;15.63;7.35;;;;;;;24.76;61.89;99863.72;5067716;28;20552;-29
2022/08/28 06:36:40;;;;;;;16.20;7.05;;;;;;;24.91;61.75;99864.38;5067864;28;20165;-31
2022/08/28 06:39:08;;;;;;;15.88;6.18;;;;;;;24.95;59.69;99870.84;5049755;28;20028;-29
2022/08/28 06:41:39;;;;;;;15.93;6.63;;;;;;;25.12;60.10;99853.66;5048713;28;20066;-30
2022/08/28 06:44:05;;;;;;;12.35;6.85;;;;;;;25.10;57.71;99856.69;5067305;28;20043;-35
2022/08/28 06:46:33;;;;;;;11.88;5.80;;;;;;;25.18;57.90;99868.75;5049741;28;20032;-31
2022/08/28 06:48:58;;;;;;;10.98;5.75;;;;;;;25.18;57.52;99855.91;5049634;28;20048;-34
2022/08/28 06:51:23;;;;;;;13.68;6.55;;;;;;;25.24;56.53;99846.44;5067521;28;20031;-34
2022/08/28 06:53:49;;;;;;;20.63;7.40;;;;;;;25.40;56.61;99849.50;5049544;28;20047;-30
2022/08/28 06:56:18;;;;;;;13.13;6.30;;;;;;;25.53;55.70;99855.88;5067051;28;20039;-31
2022/08/28 06:58:46;;;;;;;13.07;6.68;;;;;;;25.57;57.07;99867.75;5067534;28;20050;-30
2022/08/28 07:01:21;;;;;;;;;;;;;;;25.87;56.19;99876.06;5049601;28;20785;-28
2022/08/28 07:03:48;;;;;;;16.25;6.72;;;;;;;25.85;56.35;99854.50;5049263;28;19927;-29
2022/08/28 07:06:15;;;;;;;18.17;6.97;;;;;;;26.11;56.53;99861.03;5049072;28;20070;-29
2022/08/28 07:08:42;;;;;;;13.75;6.40;;;;;;;26.15;54.04;99868.25;5049173;28;20579;-30
2022/08/28 07:11:14;;;;;;;13.38;6.88;;;;;;;26.26;53.99;99846.81;5049315;28;20035;-32
2022/08/28 07:13:41;;;;;;;16.45;6.65;;;;;;;26.44;53.75;99867.47;5049165;28;20029;-31
2022/08/28 07:16:07;;;;;;;13.90;5.95;;;;;;;26.49;53.80;99846.53;5048668;28;20562;-31
2022/08/28 07:18:33;;;;;;;13.90;6.18;;;;;;;26.63;55.36;99866.28;5066953;28;20056;-34
2022/08/28 07:21:01;;;;;;;13.63;5.78;;;;;;;26.79;53.38;99869.22;5066981;28;20084;-29
2022/08/28 07:23:29;;;;;;;11.85;6.88;;;;;;;26.67;51.06;99860.94;5067007;28;20492;-29
2022/08/28 07:25:55;;;;;;;12.98;6.25;;;;;;;26.80;50.11;99852.47;5048525;28;20420;-37
2022/08/28 07:28:21;;;;;;;48.38;14.88;;;;;;;27.03;50.34;99863.06;5066974;28;20075;-30
2022/08/28 07:30:59;;;;;;;136.57;32.03;;;;;;;26.78;51.10;99843.78;5048630;28;20025;-29
2022/08/28 07:33:26;;;;;;;37.00;11.85;;;;;;;27.07;50.91;99853.06;5048625;28;20032;-34
2022/08/28 07:35:53;;;;;;;64.53;18.23;;;;;;;27.04;51.29;99840.06;5048230;28;20509;-32
2022/08/28 07:38:19;;;;;;;76.15;22.92;;;;;;;27.37;50.24;99853.00;5048516;28;20032;-29
2022/08/28 07:40:44;;;;;;;33.33;10.75;;;;;;;27.26;49.10;99855.34;5048531;28;20809;-30
2022/08/28 07:46:02;;;;;;;119.03;38.90;;;;;;;27.44;48.77;99855.97;5067068;28;20102;-32
2022/08/28 07:48:28;;;;;;;31.10;10.30;;;;;;;27.49;49.62;99842.06;5066530;28;20084;-29
2022/08/28 07:50:54;;;;;;;21.02;6.35;;;;;;;27.81;48.05;99862.34;5066897;28;20060;-29
2022/08/28 07:53:20;;;;;;;12.38;6.10;;;;;;;27.90;48.47;99851.31;5053971;28;20975;-32
2022/08/28 07:55:48;;;;;;;20.70;7.47;;;;;;;28.01;47.83;99857.16;5055443;28;20024;-29
2022/08/28 07:58:14;;;;;;;14.80;5.53;;;;;;;28.10;46.16;99849.63;5072112;28;20035;-29
2022/08/28 08:00:40;;;;;;;13.75;6.15;;;;;;;28.03;46.81;99839.25;5072081;28;20021;-32
2022/08/28 08:03:05;;;;;;;25.23;8.73;;;;;;;28.34;47.58;99848.84;5071828;28;20024;-31
2022/08/28 08:05:31;;;;;;;27.63;8.95;;;;;;;28.59;45.64;99854.31;5073078;28;20035;-29
2022/08/28 08:07:56;;;;;;;23.23;7.90;;;;;;;28.54;47.81;99851.81;5072716;28;20035;-30
2022/08/28 08:10:22;;;;;;;12.48;6.53;;;;;;;28.64;45.71;99848.59;5073112;28;20039;-29
2022/08/28 08:12:47;;;;;;;15.35;6.80;;;;;;;28.71;45.21;99857.03;5073058;28;20035;-31
2022/08/28 08:15:13;;;;;;;11.70;5.50;;;;;;;28.58;46.90;99848.00;5072985;28;20066;-31
2022/08/28 08:17:39;;;;;;;17.10;6.18;;;;;;;28.65;45.79;99869.41;5054761;28;20032;-36
2022/08/28 08:20:07;;;;;;;10.23;5.38;;;;;;;28.73;44.71;99845.69;5072718;28;20024;-31
2022/08/28 08:22:32;;;;;;;;;;;;;;;28.77;44.38;99858.41;5073777;28;20032;-29
2022/08/28 08:24:59;;;;;;;12.52;5.75;;;;;;;28.91;43.66;99859.94;5073280;28;19908;-30
2022/08/28 08:27:24;;;;;;;10.63;5.27;;;;;;;29.06;45.41;99851.00;5054924;28;20024;-30
2022/08/28 08:29:50;;;;;;;11.40;5.43;;;;;;;29.36;45.85;99854.22;5072926;28;20292;-31
2022/08/28 08:32:16;;;;;;;12.18;5.45;;;;;;;29.52;43.27;99856.97;5073012;28;20029;-34
2022/08/28 08:34:48;;;;;;;13.10;5.30;;;;;;;29.65;45.98;99839.28;5055186;28;20025;-29
2022/08/28 08:37:14;;;;;;;15.50;6.13;;;;;;;29.57;44.69;99829.25;5055057;28;20043;-29
2022/08/28 08:39:41;;;;;;;10.35;5.93;;;;;;;29.73;46.12;99845.81;5055007;28;20089;-29
2022/08/28 08:42:33;;;;;;;12.65;5.60;;;;;;;29.95;43.92;99846.31;5029315;28;20029;-29
2022/08/28 08:45:03;;;;;;;15.65;5.55;;;;;;;29.76;43.44;99844.28;5034960;28;20462;-32
2022/08/28 08:47:48;;;;;;;12.82;6.15;;;;;;;30.05;43.72;99852.09;5052995;28;20128;-31
2022/08/28 08:50:19;;;;;;;12.40;5.15;;;;;;;29.64;43.24;99842.38;5034729;28;20083;-31
2022/08/28 08:53:08;;;;;;;17.02;6.22;;;;;;;29.75;44.49;99831.69;5034852;28;20044;-29
2022/08/28 08:55:40;;;;;;;14.35;4.95;;;;;;;30.17;42.63;99855.91;5053169;28;20507;-30
2022/08/28 08:58:37;;;;;;;13.98;5.45;;;;;;;30.17;42.09;99847.66;5034858;28;20068;-34
2022/08/28 09:01:37;;;;;;;12.63;5.53;;;;;;;30.19;42.46;99856.34;5022384;28;20064;-32
2022/08/28 09:04:21;;;;;;;11.27;5.32;;;;;;;30.27;42.59;99847.09;5032262;28;20041;-29
2022/08/28 09:06:49;;;;;;;16.60;5.55;;;;;;;30.46;42.77;99829.88;5031671;28;20029;-32
2022/08/28 09:09:21;;;;;;;17.38;5.60;;;;;;;30.96;43.83;99839.25;5049556;28;20116;-29
2022/08/28 09:12:07;;;;;;;15.15;5.85;;;;;;;31.09;39.60;99842.63;5031375;28;20061;-33
2022/08/28 09:14:35;;;;;;;17.77;6.10;;;;;;;31.09;40.71;99836.34;5049645;28;20032;-32
2022/08/28 09:17:02;;;;;;;18.40;5.70;;;;;;;31.36;41.29;99828.97;5049460;28;20029;-33
2022/08/28 09:19:28;;;;;;;15.52;5.90;;;;;;;31.50;37.90;99825.72;5031463;28;20028;-31
2022/08/28 09:21:53;;;;;;;10.63;5.28;;;;;;;31.65;37.55;99827.59;5049234;28;20047;-34
2022/08/28 09:24:23;;;;;;;9.32;5.25;;;;;;;31.51;39.07;99828.13;5048736;28;20415;-32
2022/08/28 09:27:05;;;;;;;11.10;4.53;;;;;;;31.87;38.21;99827.94;5031439;28;20519;-34
2022/08/28 09:29:34;;;;;;;19.92;5.20;;;;;;;31.88;38.81;99826.78;5031462;28;20041;-34
2022/08/28 09:32:16;;;;;;;13.95;5.70;;;;;;;31.72;39.43;99830.44;5031266;28;20048;-29
2022/08/28 09:35:00;;;;;;;12.13;5.13;;;;;;;31.84;37.15;99810.97;5048972;28;20574;-32
2022/08/28 09:37:30;;;;;;;17.38;5.53;;;;;;;32.27;40.18;99821.09;5049142;28;20021;-31
2022/08/28 09:40:22;;;;;;;15.05;6.10;;;;;;;32.28;36.36;99820.72;5048921;28;20056;-30
2022/08/28 09:43:25;;;;;;;12.27;5.22;;;;;;;32.03;35.08;99818.38;5030879;28;20040;-35
2022/08/28 09:46:22;;;;;;;14.18;5.53;;;;;;;32.27;35.31;99821.91;5068105;28;20090;-28
2022/08/28 09:48:51;;;;;;;14.90;5.93;;;;;;;32.06;35.53;99807.75;5069003;28;20048;-36
2022/08/28 09:51:19;;;;;;;12.40;5.28;;;;;;;32.43;35.55;99805.97;5049494;28;20457;-33
2022/08/28 09:53:51;;;;;;;15.60;4.85;;;;;;;32.36;36.31;99805.06;5068290;28;20029;-30
2022/08/28 09:56:34;;;;;;;13.18;5.28;;;;;;;32.66;34.25;99813.38;5065375;28;20035;-29
2022/08/28 09:59:28;;;;;;;12.43;5.45;;;;;;;32.79;34.21;99811.16;5065242;28;20107;-34
2022/08/28 10:01:56;;;;;;;15.68;5.50;;;;;;;32.89;33.58;99818.78;5065313;28;20040;-30
2022/08/28 10:04:48;;;;;;;15.68;5.38;;;;;;;33.20;34.61;99806.56;5067497;28;20052;-37
2022/08/28 10:07:21;;;;;;;12.45;5.30;;;;;;;33.71;35.78;99816.13;5050380;28;20031;-31
2022/08/28 10:09:56;;;;;;;13.82;5.18;;;;;;;33.93;32.46;99811.56;5068641;28;20165;-32
2022/08/28 10:12:24;;;;;;;10.75;5.43;;;;;;;33.90;32.62;99812.34;5050301;28;20028;-30
2022/08/28 10:15:17;;;;;;;14.27;5.78;;;;;;;33.95;33.69;99811.19;5050061;28;20037;-29
2022/08/28 10:18:04;;;;;;;15.00;5.30;;;;;;;34.21;32.92;99807.47;5068069;28;20029;-38
2022/08/28 10:20:37;;;;;;;;;;;;;;;34.13;31.06;99801.09;5068556;28;20036;-33
2022/08/28 10:23:29;;;;;;;11.95;5.50;;;;;;;34.32;32.36;99802.78;5050279;28;19963;-36
2022/08/28 10:26:13;;;;;;;10.93;5.78;;;;;;;34.34;30.39;99805.16;5067492;28;20049;-33
2022/08/28 10:29:01;;;;;;;15.35;5.57;;;;;;;34.43;31.60;99808.38;5067729;28;20117;-31
2022/08/28 10:31:32;;;;;;;13.93;5.82;;;;;;;34.79;30.87;99798.28;5068040;28;20031;-30
2022/08/28 10:34:05;;;;;;;13.23;6.38;;;;;;;34.99;31.50;99795.97;5049733;28;20047;-31
2022/08/28 10:36:34;;;;;;;9.65;5.00;;;;;;;35.06;32.02;99784.09;5049639;28;20020;-33
2022/08/28 10:39:14;;;;;;;14.73;5.43;;;;;;;35.13;31.13;99781.38;5067691;28;20048;-30
2022/08/28 10:41:47;;;;;;;13.82;5.47;;;;;;;35.28;32.68;99778.66;5049549;28;20027;-30
2022/08/28 10:44:21;;;;;;;12.40;5.95;;;;;;;34.91;30.53;99783.28;5049282;28;20089;-29
2022/08/28 10:46:54;;;;;;;13.07;5.07;;;;;;;35.05;31.86;99774.22;5049304;28;20028;-29
2022/08/28 10:49:33;;;;;;;12.43;5.05;;;;;;;34.92;30.02;99784.06;5067653;28;20029;-30
2022/08/28 10:52:13;;;;;;;11.65;6.10;;;;;;;34.68;31.61;99778.06;5067303;28;20051;-35
2022/08/28 10:54:47;;;;;;;15.95;6.00;;;;;;;34.98;29.41;99785.28;5067572;28;20527;-33
2022/08/28 10:57:16;;;;;;;14.52;6.30;;;;;;;35.69;29.90;99775.53;5049434;28;20043;-30
2022/08/28 10:59:47;;;;;;;16.25;5.50;;;;;;;35.72;28.60;99769.97;5049123;28;20074;-32
2022/08/28 11:02:15;;;;;;;13.13;5.25;;;;;;;35.75;28.75;99776.72;5048848;28;20066;-31
2022/08/28 11:04:41;;;;;;;12.55;5.47;;;;;;;36.22;31.37;99777.47;5049625;28;20411;-34
2022/08/28 11:07:12;;;;;;;13.18;5.80;;;;;;;36.34;30.27;99771.47;5049283;28;20029;-30
2022/08/28 11:09:41;;;;;;;13.32;5.90;;;;;;;36.72;28.64;99773.72;5049057;28;20025;-36
2022/08/28 11:12:27;;;;;;;14.32;5.55;;;;;;;36.83;27.66;99774.47;5048655;28;20033;-33
2022/08/28 11:14:53;;;;;;;12.25;5.40;;;;;;;36.07;29.20;99767.56;5066921;28;20029;-30
2022/08/28 11:17:21;;;;;;;11.80;5.33;;;;;;;36.32;28.29;99751.66;5049085;28;20028;-30
2022/08/28 11:20:06;;;;;;;11.77;5.35;;;;;;;36.51;27.39;99766.25;5066988;28;20024;-31
2022/08/28 11:22:42;;;;;;;12.48;5.15;;;;;;;36.71;26.82;99761.81;5048850;28;20118;-30
2022/08/28 11:25:13;;;;;;;17.27;4.93;;;;;;;37.12;26.76;99758.44;5048424;28;20043;-30
2022/08/28 11:27:59;;;;;;;14.73;5.20;;;;;;;37.44;24.29;99757.44;5048512;28;20860;-33
2022/08/28 11:30:33;;;;;;;13.55;5.22;;;;;;;37.00;24.62;99756.09;5066565;28;20028;-34
2022/08/28 11:33:02;;;;;;;12.65;5.00;;;;;;;37.44;25.75;99757.44;5066927;28;20084;-31
2022/08/28 11:35:47;;;;;;;15.10;5.03;;;;;;;37.29;27.27;99751.19;5048357;28;20032;-30
2022/08/28 11:38:38;;;;;;;13.75;4.75;;;;;;;37.35;26.38;99749.56;5048680;28;20094;-30
2022/08/28 11:41:21;;;;;;;13.48;5.45;;;;;;;37.36;27.16;99753.13;5066608;28;20021;-29